This is the latest recevied weather packets stored in our database for station/object KO4LCK. If no packets are shown the sender has not sent any weather packets the latest 10 day(s).
| Time | Temp. | Humidity | Pressure | Rain* | Wind** | Luminosity | Snow |
|---|---|---|---|---|---|---|---|
| 1788275240 | 31.67° C | 60% | 1022.3 hPa | 0 mm | - | 559 W/m² | - |
| 1788274938 | 31.11° C | 61% | 1022.3 hPa | 0 mm | - | 548 W/m² | - |
| 1788274636 | 30.56° C | 62% | 1022.4 hPa | 0 mm | - | 533 W/m² | - |
| 1788274331 | 30.56° C | 62% | 1022.5 hPa | 0 mm | - | 519 W/m² | - |
| 1788274027 | 30.56° C | 62% | 1022.2 hPa | 0 mm | - | 504 W/m² | - |
| 1788273721 | 31.11° C | 60% | 1022.2 hPa | 0 mm | - | 488 W/m² | - |
| 1788273417 | 31.11° C | 62% | 1022.3 hPa | 0 mm | - | 473 W/m² | - |
| 1788273113 | 31.11° C | 61% | 1022.2 hPa | 0 mm | - | 456 W/m² | - |
| 1788272809 | 30.56° C | 63% | 1022.2 hPa | 0 mm | - | 441 W/m² | - |
| 1788272509 | 30.56° C | 65% | 1022.2 hPa | 0 mm | - | 427 W/m² | - |
| 1788272208 | 30° C | 64% | 1022.4 hPa | 0 mm | - | 409 W/m² | - |
| 1788271908 | 30° C | 64% | 1022.2 hPa | 0 mm | - | 395 W/m² | - |
| 1788271607 | 30° C | 64% | 1022.2 hPa | 0 mm | - | 379 W/m² | - |
| 1788271306 | 29.44° C | 67% | 1022.2 hPa | 0 mm | - | 362 W/m² | - |
| 1788271001 | 30° C | 65% | 1022 hPa | 0 mm | - | 348 W/m² | - |
| 1788270697 | 29.44° C | 66% | 1022.2 hPa | 0 mm | - | 333 W/m² | - |
| 1788270392 | 28.89° C | 69% | 1022.3 hPa | 0 mm | - | 316 W/m² | - |
| 1788270082 | 28.89° C | 71% | 1022 hPa | 0 mm | - | 300 W/m² | - |
| 1788269781 | 28.89° C | 72% | 1022.3 hPa | 0 mm | - | 286 W/m² | - |
| 1788269480 | 27.78° C | 74% | 1022.3 hPa | 0 mm | - | 269 W/m² | - |
| 1788269180 | 27.22° C | 76% | 1022.3 hPa | 0 mm | - | 257 W/m² | - |
| 1788268879 | 26.67° C | 78% | 1022.1 hPa | 0 mm | - | 243 W/m² | - |
| 1788268574 | 26.67° C | 78% | 1022.1 hPa | 0 mm | - | 228 W/m² | - |
| 1788268274 | 26.67° C | 79% | 1022 hPa | 0 mm | - | 213 W/m² | - |
| 1788267969 | 26.67° C | 78% | 1022.1 hPa | 0 mm | - | 198 W/m² | - |
* Rain latest hour (hover to see other rain measurements)
** Current wind speed in m/s (hover to see current wind gust speed)